This is the latest recevied weather packets stored in our database for station/object K0WXC-1. If no packets are shown the sender has not sent any weather packets the latest 10 day(s).
| Time | Temp. | Humidity | Pressure | Rain* | Wind** | Luminosity | Snow |
|---|---|---|---|---|---|---|---|
| 1777600048 | 10° C | 56% | 1003.7 hPa | 0 mm | 1.34 m/s, 268° | - | - |
| 1777599988 | 10° C | 56% | 1003.7 hPa | 0 mm | 1.34 m/s, 268° | - | - |
| 1777599928 | 10° C | 55% | 1003.8 hPa | 0 mm | 0.89 m/s, 285° | - | - |
| 1777599868 | 10° C | 55% | 1003.8 hPa | 0 mm | 0.89 m/s, 285° | - | - |
| 1777599808 | 10° C | 55% | 1003.8 hPa | 0 mm | 0.89 m/s, 285° | - | - |
| 1777599748 | 10° C | 55% | 1003.8 hPa | 0 mm | 0.89 m/s, 285° | - | - |
| 1777599688 | 10° C | 55% | 1003.8 hPa | 0 mm | 0.89 m/s, 285° | - | - |
| 1777599628 | 10.56° C | 54% | 1003.7 hPa | 0 mm | 1.34 m/s, 292° | - | - |
| 1777599568 | 10.56° C | 54% | 1003.7 hPa | 0 mm | 1.34 m/s, 292° | - | - |
| 1777599508 | 10.56° C | 54% | 1003.7 hPa | 0 mm | 1.34 m/s, 292° | - | - |
| 1777599448 | 10.56° C | 54% | 1003.7 hPa | 0 mm | 1.34 m/s, 292° | - | - |
| 1777599388 | 10.56° C | 54% | 1003.6 hPa | 0 mm | 0.89 m/s, 318° | - | - |
| 1777599328 | 10.56° C | 54% | 1003.6 hPa | 0 mm | 0.89 m/s, 318° | - | - |
| 1777599268 | 10.56° C | 54% | 1003.6 hPa | 0 mm | 0.89 m/s, 318° | - | - |
| 1777599208 | 10.56° C | 54% | 1003.6 hPa | 0 mm | 0.89 m/s, 318° | - | - |
| 1777599148 | 10.56° C | 54% | 1003.6 hPa | 0 mm | 0.89 m/s, 318° | - | - |
| 1777599088 | 10.56° C | 54% | 1003.6 hPa | 0 mm | 0.89 m/s, 318° | - | - |
| 1777599028 | 10.56° C | 53% | 1003.2 hPa | 0 mm | 1.79 m/s, 359° | - | - |
| 1777598968 | 10.56° C | 53% | 1003.2 hPa | 0 mm | 1.79 m/s, 359° | - | - |
| 1777598908 | 10.56° C | 53% | 1003.2 hPa | 0 mm | 1.79 m/s, 359° | - | - |
| 1777598848 | 10.56° C | 53% | 1003.2 hPa | 0 mm | 1.79 m/s, 359° | - | - |
| 1777598788 | 10.56° C | 53% | 1003.2 hPa | 0 mm | 1.79 m/s, 359° | - | - |
| 1777598728 | 11.11° C | 52% | 1003.4 hPa | 0 mm | 0.89 m/s, 267° | - | - |
| 1777598668 | 11.11° C | 52% | 1003.4 hPa | 0 mm | 0.89 m/s, 267° | - | - |
| 1777598608 | 11.11° C | 52% | 1003.4 hPa | 0 mm | 0.89 m/s, 267° | - | - |
* Rain latest hour (hover to see other rain measurements)
** Current wind speed in m/s (hover to see current wind gust speed)